createdAt,value
2022-09-25T00:00:49.404Z,49.53
2022-09-25T00:03:17.634Z,53.42
2022-09-25T00:05:48.514Z,53.50
2022-09-25T00:08:16.794Z,48.85
2022-09-25T00:10:47.624Z,53.35
2022-09-25T00:13:18.796Z,49.90
2022-09-25T00:15:47.722Z,51.55
2022-09-25T00:18:15.245Z,43.80
2022-09-25T00:20:41.964Z,43.97
2022-09-25T00:23:08.704Z,43.45
2022-09-25T00:25:36.592Z,41.47
2022-09-25T00:28:03.676Z,44.28
2022-09-25T00:30:30.292Z,37.67
2022-09-25T00:32:56.917Z,42.88
2022-09-25T00:35:23.400Z,42.85
2022-09-25T00:37:49.868Z,47.00
2022-09-25T00:40:16.510Z,43.67
2022-09-25T00:42:42.989Z,40.08
2022-09-25T00:45:18.334Z,37.88
2022-09-25T00:47:55.004Z,43.75
2022-09-25T00:50:39.892Z,43.67
2022-09-25T00:53:12.431Z,35.80
2022-09-25T00:55:42.670Z,41.60
2022-09-25T00:58:11.543Z,34.35
2022-09-25T01:00:38.219Z,45.08
2022-09-25T01:03:06.219Z,43.88
2022-09-25T01:05:37.032Z,42.10
2022-09-25T01:08:06.576Z,39.97
2022-09-25T01:10:33.104Z,44.40
2022-09-25T01:13:00.840Z,49.28
2022-09-25T01:15:34.121Z,44.22
2022-09-25T01:18:16.102Z,47.22
2022-09-25T01:21:10.800Z,50.55
2022-09-25T01:23:55.924Z,46.95
2022-09-25T01:27:06.633Z,46.78
2022-09-25T01:29:41.017Z,42.83
2022-09-25T01:32:23.564Z,44.42
2022-09-25T01:35:01.607Z,47.20
2022-09-25T01:38:05.952Z,47.88
2022-09-25T01:40:45.031Z,46.78
2022-09-25T01:43:18.965Z,41.95
2022-09-25T01:45:53.652Z,53.38
2022-09-25T01:48:25.762Z,42.45
2022-09-25T01:51:24.166Z,48.25
2022-09-25T01:54:02.549Z,48.08
2022-09-25T01:56:36.721Z,45.83
2022-09-25T01:59:10.751Z,57.07
2022-09-25T02:01:41.588Z,46.58
2022-09-25T02:04:13.548Z,45.47
2022-09-25T02:06:44.658Z,47.55
2022-09-25T02:09:34.439Z,51.90
2022-09-25T02:12:09.201Z,50.90
2022-09-25T02:14:43.441Z,48.47
2022-09-25T02:17:34.825Z,46.40
2022-09-25T02:20:20.488Z,50.67
2022-09-25T02:22:51.363Z,54.33
2022-09-25T02:25:30.976Z,61.80
2022-09-25T02:27:57.735Z,52.90
2022-09-25T02:30:24.244Z,53.63
2022-09-25T02:32:50.740Z,44.58
2022-09-25T02:35:17.266Z,54.50
2022-09-25T02:37:43.768Z,59.40
2022-09-25T02:40:11.516Z,47.13
2022-09-25T02:42:55.371Z,49.78
2022-09-25T02:45:31.701Z,52.67
2022-09-25T02:48:18.735Z,46.20
2022-09-25T02:51:05.907Z,58.35
2022-09-25T02:53:39.794Z,55.60
2022-09-25T02:56:11.672Z,51.75
2022-09-25T02:58:44.685Z,52.58
2022-09-25T03:01:16.094Z,46.08
2022-09-25T03:03:45.474Z,45.55
2022-09-25T03:06:12.225Z,49.53
2022-09-25T03:08:44.629Z,43.97
2022-09-25T03:11:13.688Z,43.47
2022-09-25T03:13:41.502Z,50.65
2022-09-25T03:16:14.128Z,49.38
2022-09-25T03:18:40.725Z,51.63
2022-09-25T03:21:07.230Z,56.53
2022-09-25T03:23:33.681Z,54.80
2022-09-25T03:26:00.126Z,57.25
2022-09-25T03:28:27.263Z,53.72
2022-09-25T03:31:20.114Z,55.63
2022-09-25T03:33:47.440Z,56.58
2022-09-25T03:36:13.972Z,49.60
2022-09-25T03:38:41.519Z,58.90
2022-09-25T03:41:10.116Z,50.38
2022-09-25T03:43:38.135Z,54.63
2022-09-25T03:46:05.968Z,55.30
2022-09-25T03:48:32.717Z,56.63
2022-09-25T03:51:00.687Z,58.92
2022-09-25T03:53:27.607Z,59.92
2022-09-25T03:55:54.097Z,53.53
2022-09-25T03:58:20.598Z,62.50
2022-09-25T04:00:47.062Z,53.85
2022-09-25T04:03:15.042Z,53.00
2022-09-25T04:05:43.582Z,51.35
2022-09-25T04:08:10.504Z,49.58
2022-09-25T04:10:40.259Z,60.10
2022-09-25T04:13:07.309Z,64.10
2022-09-25T04:15:34.308Z,52.67
2022-09-25T04:18:05.750Z,52.10
2022-09-25T04:20:32.942Z,45.13
2022-09-25T04:22:59.395Z,53.63
2022-09-25T04:25:25.869Z,52.88
2022-09-25T04:27:55.788Z,56.90
2022-09-25T04:30:23.215Z,60.67
2022-09-25T04:33:08.401Z,55.38
2022-09-25T04:35:35.324Z,54.95
2022-09-25T04:38:01.814Z,57.85
2022-09-25T04:40:29.254Z,54.30
2022-09-25T04:43:00.409Z,57.28
2022-09-25T04:45:28.029Z,62.17
2022-09-25T04:47:55.492Z,63.53
2022-09-25T04:50:22.930Z,55.55
2022-09-25T04:52:51.311Z,57.67
2022-09-25T04:55:19.124Z,62.38
2022-09-25T04:58:00.838Z,58.13
2022-09-25T05:00:30.642Z,61.67
2022-09-25T05:02:57.315Z,71.55
2022-09-25T05:05:28.268Z,63.10
2022-09-25T05:07:59.484Z,55.72
2022-09-25T05:10:28.824Z,59.05
2022-09-25T05:12:57.190Z,70.05
2022-09-25T05:15:23.731Z,61.80
2022-09-25T05:17:50.574Z,65.45
2022-09-25T05:20:17.142Z,68.90
2022-09-25T05:22:43.944Z,65.25
2022-09-25T05:25:10.358Z,59.50
2022-09-25T05:27:36.805Z,61.80
2022-09-25T05:30:03.539Z,65.68
2022-09-25T05:32:30.940Z,67.07
2022-09-25T05:34:57.459Z,61.25
2022-09-25T05:37:24.367Z,63.72
2022-09-25T05:39:50.870Z,58.63
2022-09-25T05:42:19.205Z,67.75
2022-09-25T05:44:46.039Z,56.45
2022-09-25T05:47:12.508Z,60.85
2022-09-25T05:49:38.929Z,72.70
2022-09-25T05:52:05.334Z,63.20
2022-09-25T05:54:31.770Z,67.03
2022-09-25T05:56:58.703Z,60.13
2022-09-25T05:59:25.120Z,64.30
2022-09-25T06:01:51.674Z,52.80
2022-09-25T06:04:18.246Z,54.33
2022-09-25T06:06:44.645Z,62.17
2022-09-25T06:09:11.118Z,51.95
2022-09-25T06:11:37.549Z,53.75
2022-09-25T06:14:04.168Z,43.03
2022-09-25T06:16:31.056Z,41.95
2022-09-25T06:18:57.613Z,54.30
2022-09-25T06:21:24.256Z,51.28
2022-09-25T06:23:50.671Z,53.30
2022-09-25T06:26:17.172Z,49.10
2022-09-25T06:28:43.664Z,54.75
2022-09-25T06:31:10.223Z,55.33
2022-09-25T06:33:36.714Z,44.25
2022-09-25T06:36:05.763Z,51.88
2022-09-25T06:38:34.295Z,55.25
2022-09-25T06:41:01.018Z,51.45
2022-09-25T06:43:28.471Z,55.08
2022-09-25T06:45:55.071Z,53.85
2022-09-25T06:48:22.184Z,52.38
2022-09-25T06:50:55.016Z,57.63
2022-09-25T06:53:23.403Z,57.92
2022-09-25T06:55:50.261Z,57.95
2022-09-25T06:58:19.609Z,55.30
2022-09-25T07:00:47.773Z,52.85
2022-09-25T07:03:32.932Z,55.03
2022-09-25T07:06:00.285Z,55.80
2022-09-25T07:08:27.142Z,45.90
2022-09-25T07:10:55.965Z,49.40
2022-09-25T07:13:25.666Z,49.97
2022-09-25T07:16:00.007Z,53.33
2022-09-25T07:18:28.347Z,52.17
2022-09-25T07:21:00.872Z,48.35
2022-09-25T07:23:28.596Z,49.20
2022-09-25T07:25:55.071Z,44.13
2022-09-25T07:28:21.574Z,40.40
2022-09-25T07:30:49.519Z,40.83
2022-09-25T07:33:16.488Z,41.10
2022-09-25T07:35:42.974Z,34.90
2022-09-25T07:38:09.456Z,41.17
2022-09-25T07:40:35.989Z,30.50
2022-09-25T07:43:03.241Z,16.73
2022-09-25T07:45:30.392Z,12.30
2022-09-25T07:48:02.248Z,13.73
2022-09-25T07:50:30.633Z,7.15
2022-09-25T07:52:57.579Z,10.18
2022-09-25T07:55:24.759Z,6.28
2022-09-25T07:57:52.002Z,13.27
2022-09-25T08:00:18.712Z,8.93
2022-09-25T08:02:45.231Z,5.15
2022-09-25T08:05:11.704Z,4.88
2022-09-25T08:07:38.426Z,3.97
2022-09-25T08:10:09.500Z,6.55
2022-09-25T08:12:41.041Z,5.18
2022-09-25T08:15:11.055Z,5.68
2022-09-25T08:17:39.563Z,5.13
2022-09-25T08:20:09.356Z,11.48
2022-09-25T08:22:44.004Z,6.85
2022-09-25T08:25:16.572Z,7.40
2022-09-25T08:27:44.970Z,8.30
2022-09-25T08:30:15.908Z,10.82
2022-09-25T08:32:43.995Z,8.65
2022-09-25T08:35:16.235Z,14.60
2022-09-25T08:38:03.679Z,10.75
2022-09-25T08:40:37.292Z,14.88
2022-09-25T08:43:05.831Z,12.35
2022-09-25T08:46:04.340Z,11.52
2022-09-25T08:49:08.029Z,10.57
2022-09-25T08:51:48.305Z,10.20
2022-09-25T08:54:27.213Z,8.40
2022-09-25T08:57:23.960Z,8.10
2022-09-25T09:00:01.465Z,7.43
2022-09-25T09:02:41.948Z,9.63
2022-09-25T09:05:22.135Z,12.30
2022-09-25T09:08:18.797Z,8.38
2022-09-25T09:11:00.488Z,8.93
2022-09-25T09:13:48.280Z,8.00
2022-09-25T09:16:29.965Z,9.88
2022-09-25T09:19:07.745Z,8.20
2022-09-25T09:22:02.244Z,7.30
2022-09-25T09:24:54.357Z,7.72
2022-09-25T09:27:51.789Z,7.93
2022-09-25T09:31:06.274Z,8.30
2022-09-25T09:34:17.101Z,10.20
2022-09-25T09:37:03.440Z,11.68
2022-09-25T09:39:46.409Z,11.27
2022-09-25T09:42:29.778Z,14.70
2022-09-25T09:45:17.730Z,10.93
2022-09-25T09:48:11.701Z,9.95
2022-09-25T09:50:53.631Z,13.05
2022-09-25T09:53:43.388Z,17.85
2022-09-25T09:56:34.577Z,15.90
2022-09-25T09:59:15.118Z,10.20
2022-09-25T10:01:51.538Z,13.55
2022-09-25T10:04:33.173Z,16.95
2022-09-25T10:07:17.687Z,14.82
2022-09-25T10:09:48.126Z,17.45
2022-09-25T10:12:34.137Z,14.35
2022-09-25T10:15:24.324Z,16.30
2022-09-25T10:18:21.829Z,13.48
2022-09-25T10:20:58.440Z,13.40
2022-09-25T10:23:42.738Z,13.23
2022-09-25T10:26:29.859Z,14.18
2022-09-25T10:28:58.968Z,18.63
2022-09-25T10:31:30.660Z,14.45
2022-09-25T10:34:00.642Z,13.35
2022-09-25T10:36:40.403Z,16.38
2022-09-25T10:39:44.823Z,17.02
2022-09-25T10:42:33.800Z,12.13
2022-09-25T10:45:00.280Z,16.70
2022-09-25T10:47:49.435Z,14.88
2022-09-25T10:50:20.772Z,25.02
2022-09-25T10:52:52.831Z,45.60
2022-09-25T10:55:31.212Z,29.98
2022-09-25T10:58:25.579Z,18.77
2022-09-25T11:00:52.002Z,37.45
2022-09-25T11:03:22.427Z,41.65
2022-09-25T11:05:56.311Z,27.42
2022-09-25T11:08:32.548Z,70.80
2022-09-25T11:11:01.299Z,18.27
2022-09-25T11:13:45.965Z,24.30
2022-09-25T11:16:13.481Z,16.23
2022-09-25T11:18:45.099Z,21.23
2022-09-25T11:21:43.104Z,30.45
2022-09-25T11:24:32.984Z,10.18
2022-09-25T11:27:31.485Z,13.68
2022-09-25T11:30:06.494Z,15.82
2022-09-25T11:32:52.406Z,14.18
2022-09-25T11:35:41.310Z,11.55
2022-09-25T11:38:58.185Z,14.02
2022-09-25T11:41:36.600Z,13.93
2022-09-25T11:44:16.208Z,14.85
2022-09-25T11:47:08.146Z,12.88
2022-09-25T11:49:40.657Z,9.65
2022-09-25T11:52:21.228Z,15.00
2022-09-25T11:55:15.452Z,10.60
2022-09-25T11:58:10.232Z,9.45
2022-09-25T12:00:46.751Z,8.00
2022-09-25T12:03:35.150Z,10.57
2022-09-25T12:06:26.917Z,11.40
2022-09-25T12:09:17.183Z,12.32
2022-09-25T12:12:15.422Z,12.73
2022-09-25T12:15:03.419Z,13.02
2022-09-25T12:17:48.678Z,16.88
2022-09-25T12:20:38.225Z,8.23
2022-09-25T12:23:22.052Z,8.02
2022-09-25T12:26:12.530Z,10.30
2022-09-25T12:29:10.442Z,12.02
2022-09-25T12:31:55.240Z,10.95
2022-09-25T12:34:55.598Z,6.95
2022-09-25T12:37:35.049Z,18.25
2022-09-25T12:40:05.847Z,8.52
2022-09-25T12:42:43.027Z,9.10
2022-09-25T12:45:23.088Z,14.43
2022-09-25T12:48:14.400Z,7.05
2022-09-25T12:51:05.417Z,11.45
2022-09-25T12:53:49.106Z,6.68
2022-09-25T12:56:54.044Z,8.98
2022-09-25T12:59:48.896Z,6.13
2022-09-25T13:02:36.347Z,6.60
2022-09-25T13:05:40.107Z,6.60
2022-09-25T13:08:16.744Z,8.52
2022-09-25T13:10:53.469Z,5.25
2022-09-25T13:13:24.572Z,4.68
2022-09-25T13:15:55.439Z,5.60
2022-09-25T13:18:24.321Z,7.63
2022-09-25T13:20:56.126Z,5.00
2022-09-25T13:23:38.328Z,5.93
2022-09-25T13:26:27.195Z,6.15
2022-09-25T13:29:05.891Z,5.57
2022-09-25T13:31:36.872Z,3.70
2022-09-25T13:34:13.553Z,7.88
2022-09-25T13:36:55.477Z,16.95
2022-09-25T13:39:50.322Z,12.57
2022-09-25T13:42:31.392Z,4.90
2022-09-25T13:45:33.427Z,20.60
2022-09-25T13:48:32.338Z,10.30
2022-09-25T13:51:21.548Z,8.23
2022-09-25T13:53:58.950Z,4.40
2022-09-25T13:56:28.539Z,7.25
2022-09-25T13:59:10.667Z,6.80
2022-09-25T14:01:40.102Z,5.70
2022-09-25T14:04:15.811Z,7.25
2022-09-25T14:06:45.164Z,7.40
2022-09-25T14:09:24.660Z,5.78
2022-09-25T14:12:03.375Z,6.00
2022-09-25T14:14:35.775Z,3.88
2022-09-25T14:17:04.232Z,8.40
2022-09-25T14:19:35.397Z,18.90
2022-09-25T14:22:04.299Z,4.53
2022-09-25T14:24:31.441Z,7.90
2022-09-25T14:27:01.118Z,3.65
2022-09-25T14:29:32.716Z,5.97
2022-09-25T14:32:50.414Z,6.53
2022-09-25T14:35:24.980Z,5.80
2022-09-25T14:38:20.759Z,3.75
2022-09-25T14:41:18.593Z,2.45
2022-09-25T14:44:17.632Z,12.02
2022-09-25T14:46:49.413Z,7.93
2022-09-25T14:49:33.691Z,7.82
2022-09-25T14:52:03.624Z,3.90
2022-09-25T14:54:36.486Z,6.55
2022-09-25T14:57:05.904Z,8.45
2022-09-25T14:59:45.725Z,4.25
2022-09-25T15:02:22.627Z,2.88
2022-09-25T15:04:49.601Z,5.10
2022-09-25T15:07:19.411Z,9.95
2022-09-25T15:09:48.411Z,6.40
2022-09-25T15:12:18.053Z,5.50
2022-09-25T15:15:02.315Z,9.88
2022-09-25T15:17:31.302Z,3.90
2022-09-25T15:20:02.019Z,6.15
2022-09-25T15:22:36.844Z,5.20
2022-09-25T15:25:06.059Z,5.53
2022-09-25T15:27:33.104Z,7.68
2022-09-25T15:30:01.043Z,6.85
2022-09-25T15:32:39.541Z,6.05
2022-09-25T15:35:19.267Z,8.75
2022-09-25T15:37:47.214Z,7.32
2022-09-25T15:40:16.723Z,5.13
2022-09-25T15:42:47.926Z,5.05
2022-09-25T15:45:32.508Z,3.47
2022-09-25T15:48:00.711Z,13.25
2022-09-25T15:50:29.175Z,4.70
2022-09-25T15:52:58.791Z,11.52
2022-09-25T15:55:25.726Z,12.43
2022-09-25T15:57:53.999Z,7.65
2022-09-25T16:00:42.888Z,6.30
2022-09-25T16:03:48.793Z,5.15
2022-09-25T16:06:16.458Z,13.90
2022-09-25T16:08:43.631Z,5.30
2022-09-25T16:11:23.501Z,13.77
2022-09-25T16:13:53.192Z,6.22
2022-09-25T16:16:29.517Z,11.10
2022-09-25T16:18:58.848Z,5.35
2022-09-25T16:21:33.778Z,11.20
2022-09-25T16:24:07.196Z,3.35
2022-09-25T16:26:38.254Z,4.28
2022-09-25T16:29:19.382Z,2.65
2022-09-25T16:31:46.679Z,8.07
2022-09-25T16:34:25.633Z,56.95
2022-09-25T16:36:54.600Z,12.05
2022-09-25T16:39:36.730Z,7.38
2022-09-25T16:42:26.628Z,15.85
2022-09-25T16:45:03.760Z,7.07
2022-09-25T16:47:30.691Z,12.02
2022-09-25T16:49:57.214Z,6.88
2022-09-25T16:52:34.631Z,5.75
2022-09-25T16:55:08.993Z,4.63
2022-09-25T16:57:36.019Z,8.73
2022-09-25T17:00:03.013Z,11.20
2022-09-25T17:02:37.704Z,8.40
2022-09-25T17:05:20.392Z,7.35
2022-09-25T17:07:48.651Z,6.72
2022-09-25T17:10:18.803Z,2.67
2022-09-25T17:12:53.542Z,7.13
2022-09-25T17:15:30.963Z,5.95
2022-09-25T17:17:57.443Z,5.30
2022-09-25T17:20:25.683Z,7.40
2022-09-25T17:22:53.361Z,3.47
2022-09-25T17:25:29.282Z,10.40
2022-09-25T17:27:56.061Z,12.05
2022-09-25T17:30:22.525Z,4.05
2022-09-25T17:32:51.417Z,7.93
2022-09-25T17:35:47.150Z,3.60
2022-09-25T17:38:13.757Z,4.45
2022-09-25T17:40:45.039Z,4.85
2022-09-25T17:43:13.766Z,10.45
2022-09-25T17:46:02.959Z,4.57
2022-09-25T17:48:31.742Z,5.95
2022-09-25T17:51:00.191Z,7.13
2022-09-25T17:53:32.598Z,12.20
2022-09-25T17:56:00.308Z,6.38
2022-09-25T17:58:29.596Z,17.40
2022-09-25T18:00:59.460Z,6.55
2022-09-25T18:03:26.479Z,5.30
2022-09-25T18:05:53.243Z,12.00
2022-09-25T18:08:19.985Z,14.40
2022-09-25T18:10:47.534Z,6.95
2022-09-25T18:13:19.917Z,7.85
2022-09-25T18:15:58.667Z,13.48
2022-09-25T18:18:25.786Z,9.23
2022-09-25T18:21:11.061Z,6.45
2022-09-25T18:23:38.526Z,6.68
2022-09-25T18:26:08.132Z,9.90
2022-09-25T18:28:34.545Z,8.48
2022-09-25T18:31:00.998Z,10.98
2022-09-25T18:33:27.585Z,10.82
2022-09-25T18:35:54.284Z,8.68
2022-09-25T18:38:20.732Z,6.78
2022-09-25T18:40:47.188Z,12.25
2022-09-25T18:43:13.653Z,8.45
2022-09-25T18:45:41.822Z,6.45
2022-09-25T18:48:08.296Z,12.57
2022-09-25T18:50:35.054Z,8.05
2022-09-25T18:53:01.514Z,8.75
2022-09-25T18:55:27.975Z,13.00
2022-09-25T18:57:54.933Z,9.40
2022-09-25T19:00:22.009Z,5.85
2022-09-25T19:02:48.574Z,6.20
2022-09-25T19:05:17.022Z,9.93
2022-09-25T19:07:43.468Z,6.35
2022-09-25T19:10:10.802Z,10.80
2022-09-25T19:12:37.395Z,8.35
2022-09-25T19:15:04.687Z,10.02
2022-09-25T19:17:31.729Z,6.60
2022-09-25T19:19:58.215Z,12.38
2022-09-25T19:22:24.721Z,7.47
2022-09-25T19:24:52.577Z,10.40
2022-09-25T19:27:19.420Z,6.68
2022-09-25T19:29:45.979Z,7.47
2022-09-25T19:32:15.106Z,7.93
2022-09-25T19:34:41.643Z,8.75
2022-09-25T19:37:08.780Z,10.15
2022-09-25T19:39:55.284Z,8.70
2022-09-25T19:42:23.092Z,6.88
2022-09-25T19:44:49.825Z,8.27
2022-09-25T19:47:16.644Z,7.90
2022-09-25T19:49:43.062Z,12.90
2022-09-25T19:52:09.495Z,14.35
2022-09-25T19:54:36.226Z,18.38
2022-09-25T19:57:02.849Z,10.95
2022-09-25T19:59:29.290Z,13.23
2022-09-25T20:01:55.802Z,10.13
2022-09-25T20:04:22.283Z,7.40
2022-09-25T20:06:48.836Z,14.32
2022-09-25T20:09:15.495Z,5.03
2022-09-25T20:11:42.559Z,13.80
2022-09-25T20:14:09.081Z,11.60
2022-09-25T20:16:37.429Z,7.88
2022-09-25T20:19:05.907Z,7.32
2022-09-25T20:21:35.371Z,14.25
2022-09-25T20:24:04.246Z,8.10
2022-09-25T20:26:31.381Z,7.63
2022-09-25T20:29:04.341Z,9.38
2022-09-25T20:31:32.582Z,6.55
2022-09-25T20:33:59.308Z,6.82
2022-09-25T20:36:25.842Z,9.00
2022-09-25T20:38:54.938Z,12.27
2022-09-25T20:41:23.078Z,10.38
2022-09-25T20:43:51.529Z,11.05
2022-09-25T20:46:20.167Z,12.18
2022-09-25T20:48:48.803Z,8.23
2022-09-25T20:51:21.195Z,8.32
2022-09-25T20:53:52.034Z,14.43
2022-09-25T20:56:19.473Z,13.40
2022-09-25T20:58:50.633Z,8.45
2022-09-25T21:01:22.622Z,3.70
2022-09-25T21:03:50.171Z,2.85
2022-09-25T21:06:19.793Z,7.05
2022-09-25T21:08:46.742Z,14.85
2022-09-25T21:11:13.438Z,13.88
2022-09-25T21:13:40.485Z,4.22
2022-09-25T21:16:12.850Z,12.10
2022-09-25T21:18:41.453Z,8.85
2022-09-25T21:21:10.733Z,13.40
2022-09-25T21:23:37.779Z,5.65
2022-09-25T21:26:05.648Z,5.57
2022-09-25T21:28:32.980Z,5.65
2022-09-25T21:31:12.711Z,14.55
2022-09-25T21:33:40.120Z,4.70
2022-09-25T21:36:10.445Z,10.50
2022-09-25T21:38:37.480Z,8.40
2022-09-25T21:41:06.707Z,9.10
2022-09-25T21:43:34.977Z,5.57
2022-09-25T21:46:05.811Z,7.63
2022-09-25T21:48:34.751Z,9.70
2022-09-25T21:51:02.853Z,7.47
2022-09-25T21:53:30.340Z,4.20
2022-09-25T21:56:07.505Z,8.35
2022-09-25T21:58:35.028Z,8.85
2022-09-25T22:01:11.256Z,4.50
2022-09-25T22:03:40.287Z,7.07
2022-09-25T22:06:18.305Z,8.43
2022-09-25T22:08:47.834Z,7.90
2022-09-25T22:11:18.228Z,8.43
2022-09-25T22:13:46.674Z,5.50
2022-09-25T22:16:23.134Z,8.15
2022-09-25T22:18:52.424Z,7.47
2022-09-25T22:21:21.865Z,9.05
2022-09-25T22:23:48.702Z,6.55
2022-09-25T22:26:17.171Z,9.98
2022-09-25T22:28:44.166Z,12.55
2022-09-25T22:31:17.086Z,20.13
2022-09-25T22:33:43.961Z,9.18
2022-09-25T22:36:11.709Z,11.15
2022-09-25T22:38:39.373Z,6.85
2022-09-25T22:41:09.298Z,10.82
2022-09-25T22:43:36.242Z,6.47
2022-09-25T22:46:03.935Z,9.70
2022-09-25T22:48:31.090Z,5.53
2022-09-25T22:51:00.262Z,11.45
2022-09-25T22:53:29.867Z,8.20
2022-09-25T22:56:08.910Z,7.60
2022-09-25T22:58:35.477Z,8.20
2022-09-25T23:01:02.346Z,5.40
2022-09-25T23:03:29.043Z,12.50
2022-09-25T23:05:57.306Z,5.55
2022-09-25T23:08:23.750Z,4.15
2022-09-25T23:11:06.811Z,4.70
2022-09-25T23:13:34.809Z,6.30
2022-09-25T23:16:08.077Z,3.70
2022-09-25T23:18:36.172Z,6.72
2022-09-25T23:21:03.375Z,7.97
2022-09-25T23:23:29.896Z,6.22
2022-09-25T23:26:00.846Z,9.13
2022-09-25T23:28:27.303Z,7.10
2022-09-25T23:30:53.882Z,3.67
2022-09-25T23:33:20.341Z,6.60
2022-09-25T23:35:46.858Z,7.18
2022-09-25T23:38:13.366Z,6.65
2022-09-25T23:40:39.886Z,10.57
2022-09-25T23:43:06.325Z,8.93
2022-09-25T23:45:32.863Z,8.40
2022-09-25T23:47:59.341Z,11.65
2022-09-25T23:50:25.866Z,7.63
2022-09-25T23:52:52.270Z,8.10
2022-09-25T23:55:18.797Z,4.07
2022-09-25T23:57:45.227Z,7.07
